sensor_id;sensor_type;location;lat;lon;timestamp;P1;durP1;ratioP1;P2;durP2;ratioP2
20794;SDS011;28087;-33.874;151.240;2023-02-11T00:01:28;8.40;;;3.45;;
20794;SDS011;28087;-33.874;151.240;2023-02-11T00:04:06;14.20;;;3.40;;
20794;SDS011;28087;-33.874;151.240;2023-02-11T00:06:41;7.50;;;3.45;;
20794;SDS011;28087;-33.874;151.240;2023-02-11T00:09:16;14.07;;;3.70;;
20794;SDS011;28087;-33.874;151.240;2023-02-11T00:11:52;14.82;;;4.00;;
20794;SDS011;28087;-33.874;151.240;2023-02-11T00:14:27;11.05;;;3.83;;
20794;SDS011;28087;-33.874;151.240;2023-02-11T00:17:03;11.77;;;3.50;;
20794;SDS011;28087;-33.874;151.240;2023-02-11T00:19:39;12.23;;;3.63;;
20794;SDS011;28087;-33.874;151.240;2023-02-11T00:22:15;15.63;;;3.67;;
20794;SDS011;28087;-33.874;151.240;2023-02-11T00:24:50;9.38;;;3.72;;
20794;SDS011;28087;-33.874;151.240;2023-02-11T00:27:26;15.15;;;3.78;;
20794;SDS011;28087;-33.874;151.240;2023-02-11T00:30:02;15.20;;;3.80;;
20794;SDS011;28087;-33.874;151.240;2023-02-11T00:32:39;12.07;;;3.80;;
20794;SDS011;28087;-33.874;151.240;2023-02-11T00:35:17;14.00;;;3.80;;
20794;SDS011;28087;-33.874;151.240;2023-02-11T00:37:52;12.68;;;3.50;;
20794;SDS011;28087;-33.874;151.240;2023-02-11T00:40:27;13.80;;;3.50;;
20794;SDS011;28087;-33.874;151.240;2023-02-11T00:43:04;11.40;;;3.33;;
20794;SDS011;28087;-33.874;151.240;2023-02-11T00:45:39;10.25;;;3.35;;
20794;SDS011;28087;-33.874;151.240;2023-02-11T00:48:14;10.10;;;3.47;;
20794;SDS011;28087;-33.874;151.240;2023-02-11T00:50:51;11.48;;;3.40;;
20794;SDS011;28087;-33.874;151.240;2023-02-11T00:53:26;7.97;;;3.20;;
20794;SDS011;28087;-33.874;151.240;2023-02-11T00:56:01;7.18;;;2.92;;
20794;SDS011;28087;-33.874;151.240;2023-02-11T00:58:36;9.98;;;3.03;;
20794;SDS011;28087;-33.874;151.240;2023-02-11T01:01:11;6.47;;;3.10;;
20794;SDS011;28087;-33.874;151.240;2023-02-11T01:03:48;11.63;;;3.33;;
20794;SDS011;28087;-33.874;151.240;2023-02-11T01:06:25;6.78;;;3.17;;
20794;SDS011;28087;-33.874;151.240;2023-02-11T01:09:00;12.52;;;3.28;;
20794;SDS011;28087;-33.874;151.240;2023-02-11T01:11:36;9.93;;;3.15;;
20794;SDS011;28087;-33.874;151.240;2023-02-11T01:14:13;6.80;;;2.70;;
20794;SDS011;28087;-33.874;151.240;2023-02-11T01:16:50;7.10;;;2.60;;
20794;SDS011;28087;-33.874;151.240;2023-02-11T01:19:26;9.95;;;2.65;;
20794;SDS011;28087;-33.874;151.240;2023-02-11T01:22:03;8.10;;;2.70;;
20794;SDS011;28087;-33.874;151.240;2023-02-11T01:24:38;11.00;;;2.83;;
20794;SDS011;28087;-33.874;151.240;2023-02-11T01:27:13;9.10;;;2.55;;
20794;SDS011;28087;-33.874;151.240;2023-02-11T01:29:48;9.70;;;3.10;;
20794;SDS011;28087;-33.874;151.240;2023-02-11T01:32:23;8.38;;;2.63;;
20794;SDS011;28087;-33.874;151.240;2023-02-11T01:34:59;9.13;;;3.10;;
20794;SDS011;28087;-33.874;151.240;2023-02-11T01:37:38;8.00;;;2.90;;
20794;SDS011;28087;-33.874;151.240;2023-02-11T01:40:14;12.10;;;3.42;;
20794;SDS011;28087;-33.874;151.240;2023-02-11T01:42:53;9.98;;;3.70;;
20794;SDS011;28087;-33.874;151.240;2023-02-11T01:48:33;11.32;;;3.50;;
20794;SDS011;28087;-33.874;151.240;2023-02-11T01:51:11;10.15;;;3.22;;
20794;SDS011;28087;-33.874;151.240;2023-02-11T01:53:49;8.50;;;3.22;;
20794;SDS011;28087;-33.874;151.240;2023-02-11T01:56:43;6.05;;;2.70;;
20794;SDS011;28087;-33.874;151.240;2023-02-11T01:59:37;7.07;;;2.60;;
20794;SDS011;28087;-33.874;151.240;2023-02-11T02:02:13;8.07;;;2.60;;
20794;SDS011;28087;-33.874;151.240;2023-02-11T02:04:51;7.10;;;3.20;;
20794;SDS011;28087;-33.874;151.240;2023-02-11T02:07:31;9.93;;;3.30;;
20794;SDS011;28087;-33.874;151.240;2023-02-11T02:10:11;9.18;;;3.10;;
20794;SDS011;28087;-33.874;151.240;2023-02-11T02:12:47;8.43;;;3.10;;
20794;SDS011;28087;-33.874;151.240;2023-02-11T02:15:24;9.25;;;3.00;;
20794;SDS011;28087;-33.874;151.240;2023-02-11T02:18:01;6.90;;;2.60;;
20794;SDS011;28087;-33.874;151.240;2023-02-11T02:20:49;11.30;;;2.92;;
20794;SDS011;28087;-33.874;151.240;2023-02-11T02:23:34;6.80;;;3.10;;
20794;SDS011;28087;-33.874;151.240;2023-02-11T02:26:28;9.77;;;2.75;;
20794;SDS011;28087;-33.874;151.240;2023-02-11T02:29:16;8.55;;;2.72;;
20794;SDS011;28087;-33.874;151.240;2023-02-11T02:34:49;11.65;;;3.10;;
20794;SDS011;28087;-33.874;151.240;2023-02-11T02:37:30;10.93;;;3.03;;
20794;SDS011;28087;-33.874;151.240;2023-02-11T02:40:10;8.73;;;3.33;;
20794;SDS011;28087;-33.874;151.240;2023-02-11T02:42:46;7.50;;;2.90;;
20794;SDS011;28087;-33.874;151.240;2023-02-11T02:45:21;9.88;;;3.03;;
20794;SDS011;28087;-33.874;151.240;2023-02-11T02:47:56;8.30;;;2.90;;
20794;SDS011;28087;-33.874;151.240;2023-02-11T02:50:35;10.60;;;3.00;;
20794;SDS011;28087;-33.874;151.240;2023-02-11T02:53:13;6.30;;;3.00;;
20794;SDS011;28087;-33.874;151.240;2023-02-11T02:55:53;12.82;;;3.10;;
20794;SDS011;28087;-33.874;151.240;2023-02-11T02:58:36;11.02;;;3.45;;
20794;SDS011;28087;-33.874;151.240;2023-02-11T03:01:18;13.52;;;3.38;;
20794;SDS011;28087;-33.874;151.240;2023-02-11T03:03:56;8.82;;;3.20;;
20794;SDS011;28087;-33.874;151.240;2023-02-11T03:06:37;10.02;;;3.08;;
20794;SDS011;28087;-33.874;151.240;2023-02-11T03:09:15;12.75;;;3.10;;
20794;SDS011;28087;-33.874;151.240;2023-02-11T03:11:54;11.80;;;3.10;;
20794;SDS011;28087;-33.874;151.240;2023-02-11T03:14:29;7.68;;;2.88;;
20794;SDS011;28087;-33.874;151.240;2023-02-11T03:17:03;12.20;;;2.90;;
20794;SDS011;28087;-33.874;151.240;2023-02-11T03:19:41;8.40;;;2.85;;
20794;SDS011;28087;-33.874;151.240;2023-02-11T03:22:19;9.70;;;2.67;;
20794;SDS011;28087;-33.874;151.240;2023-02-11T03:24:55;14.55;;;3.13;;
20794;SDS011;28087;-33.874;151.240;2023-02-11T03:27:32;11.35;;;2.83;;
20794;SDS011;28087;-33.874;151.240;2023-02-11T03:30:12;8.30;;;2.92;;
20794;SDS011;28087;-33.874;151.240;2023-02-11T03:32:48;9.93;;;2.50;;
20794;SDS011;28087;-33.874;151.240;2023-02-11T03:35:25;8.73;;;2.80;;
20794;SDS011;28087;-33.874;151.240;2023-02-11T03:38:04;9.88;;;2.70;;
20794;SDS011;28087;-33.874;151.240;2023-02-11T03:40:42;10.65;;;2.72;;
20794;SDS011;28087;-33.874;151.240;2023-02-11T03:43:19;9.50;;;2.40;;
20794;SDS011;28087;-33.874;151.240;2023-02-11T03:45:55;9.25;;;2.65;;
20794;SDS011;28087;-33.874;151.240;2023-02-11T03:48:30;11.63;;;2.75;;
20794;SDS011;28087;-33.874;151.240;2023-02-11T03:51:07;5.72;;;2.35;;
20794;SDS011;28087;-33.874;151.240;2023-02-11T03:53:45;10.82;;;2.60;;
20794;SDS011;28087;-33.874;151.240;2023-02-11T03:56:20;9.88;;;2.58;;
20794;SDS011;28087;-33.874;151.240;2023-02-11T03:58:56;9.68;;;2.67;;
20794;SDS011;28087;-33.874;151.240;2023-02-11T04:01:31;11.45;;;2.97;;
20794;SDS011;28087;-33.874;151.240;2023-02-11T04:04:06;9.15;;;2.50;;
20794;SDS011;28087;-33.874;151.240;2023-02-11T04:06:41;10.07;;;2.88;;
20794;SDS011;28087;-33.874;151.240;2023-02-11T04:09:18;11.95;;;3.05;;
20794;SDS011;28087;-33.874;151.240;2023-02-11T04:11:53;8.80;;;2.60;;
20794;SDS011;28087;-33.874;151.240;2023-02-11T04:14:28;9.65;;;2.95;;
20794;SDS011;28087;-33.874;151.240;2023-02-11T04:17:02;9.43;;;2.50;;
20794;SDS011;28087;-33.874;151.240;2023-02-11T04:19:37;11.43;;;2.65;;
20794;SDS011;28087;-33.874;151.240;2023-02-11T04:22:12;11.57;;;2.75;;
20794;SDS011;28087;-33.874;151.240;2023-02-11T04:24:50;11.52;;;3.10;;
20794;SDS011;28087;-33.874;151.240;2023-02-11T04:27:24;12.45;;;2.70;;
20794;SDS011;28087;-33.874;151.240;2023-02-11T04:29:59;11.00;;;3.10;;
20794;SDS011;28087;-33.874;151.240;2023-02-11T04:32:35;10.40;;;2.72;;
20794;SDS011;28087;-33.874;151.240;2023-02-11T04:35:10;13.70;;;3.13;;
20794;SDS011;28087;-33.874;151.240;2023-02-11T04:37:45;11.68;;;2.90;;
20794;SDS011;28087;-33.874;151.240;2023-02-11T04:40:22;10.20;;;3.15;;
20794;SDS011;28087;-33.874;151.240;2023-02-11T04:42:57;10.02;;;3.03;;
20794;SDS011;28087;-33.874;151.240;2023-02-11T04:45:32;12.80;;;3.08;;
20794;SDS011;28087;-33.874;151.240;2023-02-11T04:48:06;10.80;;;2.90;;
20794;SDS011;28087;-33.874;151.240;2023-02-11T04:50:41;10.40;;;3.05;;
20794;SDS011;28087;-33.874;151.240;2023-02-11T04:53:16;15.43;;;3.28;;
20794;SDS011;28087;-33.874;151.240;2023-02-11T04:55:53;13.10;;;3.10;;
20794;SDS011;28087;-33.874;151.240;2023-02-11T04:58:28;10.23;;;2.88;;
20794;SDS011;28087;-33.874;151.240;2023-02-11T05:01:06;10.50;;;3.17;;
20794;SDS011;28087;-33.874;151.240;2023-02-11T05:03:41;13.20;;;3.17;;
20794;SDS011;28087;-33.874;151.240;2023-02-11T05:06:16;11.00;;;3.13;;
20794;SDS011;28087;-33.874;151.240;2023-02-11T05:08:51;10.98;;;3.05;;
20794;SDS011;28087;-33.874;151.240;2023-02-11T05:11:28;12.77;;;3.75;;
20794;SDS011;28087;-33.874;151.240;2023-02-11T05:14:03;10.35;;;3.05;;
20794;SDS011;28087;-33.874;151.240;2023-02-11T05:16:38;13.32;;;3.22;;
20794;SDS011;28087;-33.874;151.240;2023-02-11T05:19:13;14.68;;;3.05;;
20794;SDS011;28087;-33.874;151.240;2023-02-11T05:21:47;14.00;;;3.40;;
20794;SDS011;28087;-33.874;151.240;2023-02-11T05:24:31;14.43;;;3.00;;
20794;SDS011;28087;-33.874;151.240;2023-02-11T05:27:08;12.02;;;3.28;;
20794;SDS011;28087;-33.874;151.240;2023-02-11T05:29:43;13.98;;;3.75;;
20794;SDS011;28087;-33.874;151.240;2023-02-11T05:32:17;15.70;;;3.33;;
20794;SDS011;28087;-33.874;151.240;2023-02-11T05:34:52;13.25;;;3.25;;
20794;SDS011;28087;-33.874;151.240;2023-02-11T05:37:27;14.15;;;3.33;;
20794;SDS011;28087;-33.874;151.240;2023-02-11T05:40:02;14.35;;;3.22;;
20794;SDS011;28087;-33.874;151.240;2023-02-11T05:42:39;16.77;;;3.33;;
20794;SDS011;28087;-33.874;151.240;2023-02-11T05:45:14;15.90;;;3.38;;
20794;SDS011;28087;-33.874;151.240;2023-02-11T05:47:52;19.90;;;3.40;;
20794;SDS011;28087;-33.874;151.240;2023-02-11T05:50:27;15.70;;;3.72;;
20794;SDS011;28087;-33.874;151.240;2023-02-11T05:53:01;13.48;;;3.28;;
20794;SDS011;28087;-33.874;151.240;2023-02-11T05:55:36;13.93;;;3.45;;
20794;SDS011;28087;-33.874;151.240;2023-02-11T05:58:14;16.65;;;3.22;;
20794;SDS011;28087;-33.874;151.240;2023-02-11T06:00:48;15.55;;;3.42;;
20794;SDS011;28087;-33.874;151.240;2023-02-11T06:03:22;14.68;;;3.40;;
20794;SDS011;28087;-33.874;151.240;2023-02-11T06:05:58;15.00;;;3.50;;
20794;SDS011;28087;-33.874;151.240;2023-02-11T06:08:32;15.32;;;3.47;;
20794;SDS011;28087;-33.874;151.240;2023-02-11T06:11:07;15.18;;;3.10;;
20794;SDS011;28087;-33.874;151.240;2023-02-11T06:13:44;17.55;;;3.60;;
20794;SDS011;28087;-33.874;151.240;2023-02-11T06:16:19;16.17;;;3.47;;
20794;SDS011;28087;-33.874;151.240;2023-02-11T06:18:54;17.15;;;3.60;;
20794;SDS011;28087;-33.874;151.240;2023-02-11T06:21:29;12.65;;;3.17;;
20794;SDS011;28087;-33.874;151.240;2023-02-11T06:24:11;15.73;;;3.25;;
20794;SDS011;28087;-33.874;151.240;2023-02-11T06:27:07;17.80;;;3.53;;
20794;SDS011;28087;-33.874;151.240;2023-02-11T06:29:50;13.82;;;3.53;;
20794;SDS011;28087;-33.874;151.240;2023-02-11T06:32:25;14.00;;;3.25;;
20794;SDS011;28087;-33.874;151.240;2023-02-11T06:35:15;15.15;;;3.22;;
20794;SDS011;28087;-33.874;151.240;2023-02-11T06:37:51;18.92;;;3.60;;
20794;SDS011;28087;-33.874;151.240;2023-02-11T06:40:25;18.95;;;3.40;;
20794;SDS011;28087;-33.874;151.240;2023-02-11T06:43:00;15.95;;;3.22;;
20794;SDS011;28087;-33.874;151.240;2023-02-11T06:45:37;17.65;;;3.60;;
20794;SDS011;28087;-33.874;151.240;2023-02-11T06:48:12;16.60;;;3.05;;
20794;SDS011;28087;-33.874;151.240;2023-02-11T06:50:49;17.75;;;3.22;;
20794;SDS011;28087;-33.874;151.240;2023-02-11T06:53:24;14.93;;;3.72;;
20794;SDS011;28087;-33.874;151.240;2023-02-11T06:56:01;14.60;;;3.28;;
20794;SDS011;28087;-33.874;151.240;2023-02-11T06:58:36;15.20;;;3.38;;
20794;SDS011;28087;-33.874;151.240;2023-02-11T07:01:14;15.20;;;3.22;;
20794;SDS011;28087;-33.874;151.240;2023-02-11T07:03:49;18.30;;;3.50;;
20794;SDS011;28087;-33.874;151.240;2023-02-11T07:06:24;16.98;;;3.20;;
20794;SDS011;28087;-33.874;151.240;2023-02-11T07:08:59;16.75;;;3.72;;
20794;SDS011;28087;-33.874;151.240;2023-02-11T07:11:34;18.73;;;3.78;;
20794;SDS011;28087;-33.874;151.240;2023-02-11T07:14:09;18.70;;;4.10;;
20794;SDS011;28087;-33.874;151.240;2023-02-11T07:16:46;16.98;;;3.53;;
20794;SDS011;28087;-33.874;151.240;2023-02-11T07:19:22;23.08;;;3.90;;
20794;SDS011;28087;-33.874;151.240;2023-02-11T07:21:57;16.40;;;3.17;;
20794;SDS011;28087;-33.874;151.240;2023-02-11T07:24:31;22.95;;;4.00;;
20794;SDS011;28087;-33.874;151.240;2023-02-11T07:27:06;15.32;;;3.10;;
20794;SDS011;28087;-33.874;151.240;2023-02-11T07:29:41;19.02;;;3.70;;
20794;SDS011;28087;-33.874;151.240;2023-02-11T07:32:19;16.75;;;3.55;;
20794;SDS011;28087;-33.874;151.240;2023-02-11T07:34:54;17.48;;;3.50;;
20794;SDS011;28087;-33.874;151.240;2023-02-11T07:37:28;16.17;;;3.60;;
20794;SDS011;28087;-33.874;151.240;2023-02-11T07:40:04;19.63;;;3.75;;
20794;SDS011;28087;-33.874;151.240;2023-02-11T07:42:38;17.27;;;3.70;;
20794;SDS011;28087;-33.874;151.240;2023-02-11T07:45:13;18.52;;;4.03;;
20794;SDS011;28087;-33.874;151.240;2023-02-11T07:47:51;20.33;;;3.80;;
20794;SDS011;28087;-33.874;151.240;2023-02-11T07:50:26;20.55;;;3.90;;
20794;SDS011;28087;-33.874;151.240;2023-02-11T07:53:01;17.85;;;3.53;;
20794;SDS011;28087;-33.874;151.240;2023-02-11T07:55:37;19.63;;;3.70;;
20794;SDS011;28087;-33.874;151.240;2023-02-11T07:58:12;18.63;;;3.53;;
20794;SDS011;28087;-33.874;151.240;2023-02-11T08:00:47;21.00;;;3.42;;
20794;SDS011;28087;-33.874;151.240;2023-02-11T08:03:25;22.23;;;4.15;;
20794;SDS011;28087;-33.874;151.240;2023-02-11T08:06:02;23.05;;;3.92;;
20794;SDS011;28087;-33.874;151.240;2023-02-11T08:08:36;22.08;;;4.25;;
20794;SDS011;28087;-33.874;151.240;2023-02-11T08:11:12;19.10;;;3.63;;
20794;SDS011;28087;-33.874;151.240;2023-02-11T08:13:47;19.77;;;3.65;;
20794;SDS011;28087;-33.874;151.240;2023-02-11T08:16:24;20.50;;;3.95;;
20794;SDS011;28087;-33.874;151.240;2023-02-11T08:19:02;18.15;;;3.83;;
20794;SDS011;28087;-33.874;151.240;2023-02-11T08:21:38;19.63;;;3.47;;
20794;SDS011;28087;-33.874;151.240;2023-02-11T08:24:13;20.80;;;3.78;;
20794;SDS011;28087;-33.874;151.240;2023-02-11T08:26:48;20.40;;;4.00;;
20794;SDS011;28087;-33.874;151.240;2023-02-11T08:29:22;17.83;;;3.50;;
20794;SDS011;28087;-33.874;151.240;2023-02-11T08:31:57;18.05;;;3.60;;
20794;SDS011;28087;-33.874;151.240;2023-02-11T08:34:35;19.52;;;4.00;;
20794;SDS011;28087;-33.874;151.240;2023-02-11T08:37:09;17.20;;;3.63;;
20794;SDS011;28087;-33.874;151.240;2023-02-11T08:39:44;23.42;;;4.13;;
20794;SDS011;28087;-33.874;151.240;2023-02-11T08:42:19;15.77;;;3.72;;
20794;SDS011;28087;-33.874;151.240;2023-02-11T08:44:54;19.00;;;3.88;;
20794;SDS011;28087;-33.874;151.240;2023-02-11T08:47:29;19.60;;;4.03;;
20794;SDS011;28087;-33.874;151.240;2023-02-11T08:50:06;17.15;;;4.18;;
20794;SDS011;28087;-33.874;151.240;2023-02-11T08:52:41;16.08;;;3.42;;
20794;SDS011;28087;-33.874;151.240;2023-02-11T08:55:19;18.48;;;4.00;;
20794;SDS011;28087;-33.874;151.240;2023-02-11T08:57:54;17.83;;;3.97;;
20794;SDS011;28087;-33.874;151.240;2023-02-11T09:00:28;20.23;;;3.90;;
20794;SDS011;28087;-33.874;151.240;2023-02-11T09:03:04;16.67;;;3.72;;
20794;SDS011;28087;-33.874;151.240;2023-02-11T09:05:42;17.80;;;4.07;;
20794;SDS011;28087;-33.874;151.240;2023-02-11T09:08:17;14.18;;;3.65;;
20794;SDS011;28087;-33.874;151.240;2023-02-11T09:10:51;20.20;;;4.18;;
20794;SDS011;28087;-33.874;151.240;2023-02-11T09:13:31;18.42;;;4.00;;
20794;SDS011;28087;-33.874;151.240;2023-02-11T09:16:07;15.48;;;3.60;;
20794;SDS011;28087;-33.874;151.240;2023-02-11T09:18:48;17.55;;;3.88;;
20794;SDS011;28087;-33.874;151.240;2023-02-11T09:21:26;19.40;;;4.00;;
20794;SDS011;28087;-33.874;151.240;2023-02-11T09:24:03;21.00;;;4.13;;
20794;SDS011;28087;-33.874;151.240;2023-02-11T09:26:40;20.40;;;4.47;;
20794;SDS011;28087;-33.874;151.240;2023-02-11T09:29:16;19.67;;;4.18;;
20794;SDS011;28087;-33.874;151.240;2023-02-11T09:31:51;19.58;;;4.05;;
20794;SDS011;28087;-33.874;151.240;2023-02-11T09:34:27;20.67;;;4.22;;
20794;SDS011;28087;-33.874;151.240;2023-02-11T09:37:06;20.38;;;4.28;;
20794;SDS011;28087;-33.874;151.240;2023-02-11T09:39:43;19.05;;;3.67;;
20794;SDS011;28087;-33.874;151.240;2023-02-11T09:45:14;19.55;;;3.90;;
20794;SDS011;28087;-33.874;151.240;2023-02-11T09:47:52;20.10;;;4.03;;
20794;SDS011;28087;-33.874;151.240;2023-02-11T09:50:28;22.75;;;4.25;;
20794;SDS011;28087;-33.874;151.240;2023-02-11T09:53:06;26.98;;;4.88;;
20794;SDS011;28087;-33.874;151.240;2023-02-11T09:55:45;22.00;;;3.95;;
20794;SDS011;28087;-33.874;151.240;2023-02-11T09:58:21;22.95;;;4.18;;
20794;SDS011;28087;-33.874;151.240;2023-02-11T10:00:59;18.70;;;4.00;;
20794;SDS011;28087;-33.874;151.240;2023-02-11T10:03:52;21.73;;;3.90;;
20794;SDS011;28087;-33.874;151.240;2023-02-11T10:06:38;20.63;;;4.18;;
20794;SDS011;28087;-33.874;151.240;2023-02-11T10:12:24;22.00;;;4.10;;
20794;SDS011;28087;-33.874;151.240;2023-02-11T10:15:16;19.27;;;4.18;;
20794;SDS011;28087;-33.874;151.240;2023-02-11T10:18:12;20.65;;;4.13;;
20794;SDS011;28087;-33.874;151.240;2023-02-11T10:21:06;27.73;;;4.80;;
20794;SDS011;28087;-33.874;151.240;2023-02-11T10:23:48;21.20;;;4.00;;
20794;SDS011;28087;-33.874;151.240;2023-02-11T10:26:25;25.27;;;4.15;;
20794;SDS011;28087;-33.874;151.240;2023-02-11T10:29:09;27.02;;;4.55;;
20794;SDS011;28087;-33.874;151.240;2023-02-11T10:31:45;19.10;;;4.50;;
20794;SDS011;28087;-33.874;151.240;2023-02-11T10:34:20;31.90;;;4.53;;
20794;SDS011;28087;-33.874;151.240;2023-02-11T10:36:56;22.33;;;4.30;;
20794;SDS011;28087;-33.874;151.240;2023-02-11T10:39:32;19.58;;;4.25;;
20794;SDS011;28087;-33.874;151.240;2023-02-11T10:42:07;21.42;;;4.55;;
20794;SDS011;28087;-33.874;151.240;2023-02-11T10:44:46;21.90;;;4.15;;
20794;SDS011;28087;-33.874;151.240;2023-02-11T10:47:23;24.23;;;4.40;;
20794;SDS011;28087;-33.874;151.240;2023-02-11T10:50:00;30.27;;;4.90;;
20794;SDS011;28087;-33.874;151.240;2023-02-11T10:52:51;21.70;;;4.07;;
20794;SDS011;28087;-33.874;151.240;2023-02-11T10:55:26;25.70;;;4.22;;
20794;SDS011;28087;-33.874;151.240;2023-02-11T10:58:01;21.70;;;4.50;;
20794;SDS011;28087;-33.874;151.240;2023-02-11T11:00:39;24.63;;;5.00;;
20794;SDS011;28087;-33.874;151.240;2023-02-11T11:03:16;26.83;;;4.78;;
20794;SDS011;28087;-33.874;151.240;2023-02-11T11:05:52;25.73;;;4.35;;
20794;SDS011;28087;-33.874;151.240;2023-02-11T11:08:37;25.10;;;4.72;;
20794;SDS011;28087;-33.874;151.240;2023-02-11T11:11:14;24.20;;;4.70;;
20794;SDS011;28087;-33.874;151.240;2023-02-11T11:13:53;23.67;;;4.30;;
20794;SDS011;28087;-33.874;151.240;2023-02-11T11:16:31;25.98;;;4.20;;
20794;SDS011;28087;-33.874;151.240;2023-02-11T11:19:19;22.13;;;4.60;;
20794;SDS011;28087;-33.874;151.240;2023-02-11T11:21:55;26.30;;;4.93;;
20794;SDS011;28087;-33.874;151.240;2023-02-11T11:24:30;23.27;;;4.43;;
20794;SDS011;28087;-33.874;151.240;2023-02-11T11:27:06;27.00;;;4.60;;
20794;SDS011;28087;-33.874;151.240;2023-02-11T11:29:43;23.83;;;4.15;;
20794;SDS011;28087;-33.874;151.240;2023-02-11T11:32:22;24.08;;;5.03;;
20794;SDS011;28087;-33.874;151.240;2023-02-11T11:34:58;23.58;;;4.32;;
20794;SDS011;28087;-33.874;151.240;2023-02-11T11:37:34;27.55;;;4.63;;
20794;SDS011;28087;-33.874;151.240;2023-02-11T11:40:10;24.23;;;4.82;;
20794;SDS011;28087;-33.874;151.240;2023-02-11T11:43:05;21.67;;;4.40;;
20794;SDS011;28087;-33.874;151.240;2023-02-11T11:45:39;26.63;;;4.35;;
20794;SDS011;28087;-33.874;151.240;2023-02-11T11:48:27;22.55;;;4.93;;
20794;SDS011;28087;-33.874;151.240;2023-02-11T11:51:05;21.25;;;3.92;;
20794;SDS011;28087;-33.874;151.240;2023-02-11T11:53:42;21.88;;;4.05;;
20794;SDS011;28087;-33.874;151.240;2023-02-11T11:56:19;23.60;;;4.35;;
20794;SDS011;28087;-33.874;151.240;2023-02-11T11:58:58;19.83;;;4.10;;
20794;SDS011;28087;-33.874;151.240;2023-02-11T12:01:37;27.00;;;4.60;;
20794;SDS011;28087;-33.874;151.240;2023-02-11T12:04:32;25.98;;;4.60;;
20794;SDS011;28087;-33.874;151.240;2023-02-11T12:07:18;24.95;;;4.43;;
20794;SDS011;28087;-33.874;151.240;2023-02-11T12:10:03;24.48;;;4.40;;
20794;SDS011;28087;-33.874;151.240;2023-02-11T12:12:42;22.77;;;4.43;;
20794;SDS011;28087;-33.874;151.240;2023-02-11T12:15:26;24.83;;;4.85;;
20794;SDS011;28087;-33.874;151.240;2023-02-11T12:18:10;28.40;;;4.53;;
20794;SDS011;28087;-33.874;151.240;2023-02-11T12:20:54;22.90;;;4.47;;
20794;SDS011;28087;-33.874;151.240;2023-02-11T12:23:34;22.75;;;4.47;;
20794;SDS011;28087;-33.874;151.240;2023-02-11T12:26:13;25.77;;;4.63;;
20794;SDS011;28087;-33.874;151.240;2023-02-11T12:28:52;25.85;;;4.90;;
20794;SDS011;28087;-33.874;151.240;2023-02-11T12:31:36;28.55;;;4.47;;
20794;SDS011;28087;-33.874;151.240;2023-02-11T12:34:21;21.92;;;4.72;;
20794;SDS011;28087;-33.874;151.240;2023-02-11T12:37:02;27.35;;;4.30;;
20794;SDS011;28087;-33.874;151.240;2023-02-11T12:39:40;18.75;;;3.63;;
20794;SDS011;28087;-33.874;151.240;2023-02-11T12:42:22;20.13;;;4.07;;
20794;SDS011;28087;-33.874;151.240;2023-02-11T12:45:22;21.10;;;3.47;;
20794;SDS011;28087;-33.874;151.240;2023-02-11T12:48:02;18.48;;;3.40;;
20794;SDS011;28087;-33.874;151.240;2023-02-11T12:50:41;17.25;;;3.85;;
20794;SDS011;28087;-33.874;151.240;2023-02-11T12:53:28;16.90;;;3.45;;
20794;SDS011;28087;-33.874;151.240;2023-02-11T12:56:11;18.80;;;3.65;;
20794;SDS011;28087;-33.874;151.240;2023-02-11T12:58:49;18.90;;;3.60;;
20794;SDS011;28087;-33.874;151.240;2023-02-11T13:01:26;24.30;;;3.75;;
20794;SDS011;28087;-33.874;151.240;2023-02-11T13:04:04;18.42;;;4.05;;
20794;SDS011;28087;-33.874;151.240;2023-02-11T13:06:40;15.13;;;3.53;;
20794;SDS011;28087;-33.874;151.240;2023-02-11T13:09:20;18.20;;;3.63;;
20794;SDS011;28087;-33.874;151.240;2023-02-11T13:11:56;21.77;;;4.22;;
20794;SDS011;28087;-33.874;151.240;2023-02-11T13:14:53;17.38;;;3.83;;
20794;SDS011;28087;-33.874;151.240;2023-02-11T13:17:32;24.05;;;3.88;;
20794;SDS011;28087;-33.874;151.240;2023-02-11T13:22:48;21.30;;;4.00;;
20794;SDS011;28087;-33.874;151.240;2023-02-11T13:25:30;16.95;;;3.63;;
20794;SDS011;28087;-33.874;151.240;2023-02-11T13:28:14;20.15;;;4.18;;
20794;SDS011;28087;-33.874;151.240;2023-02-11T13:30:52;28.77;;;4.25;;
20794;SDS011;28087;-33.874;151.240;2023-02-11T13:33:33;18.83;;;3.88;;
20794;SDS011;28087;-33.874;151.240;2023-02-11T13:39:03;18.95;;;3.58;;
20794;SDS011;28087;-33.874;151.240;2023-02-11T13:41:41;23.80;;;3.80;;
20794;SDS011;28087;-33.874;151.240;2023-02-11T13:44:26;21.38;;;4.13;;
20794;SDS011;28087;-33.874;151.240;2023-02-11T13:47:02;18.45;;;3.63;;
20794;SDS011;28087;-33.874;151.240;2023-02-11T13:49:38;19.75;;;3.55;;
20794;SDS011;28087;-33.874;151.240;2023-02-11T13:52:19;20.35;;;3.90;;
20794;SDS011;28087;-33.874;151.240;2023-02-11T13:54:55;21.00;;;4.00;;
20794;SDS011;28087;-33.874;151.240;2023-02-11T13:57:36;17.15;;;4.05;;
20794;SDS011;28087;-33.874;151.240;2023-02-11T14:03:24;22.05;;;4.20;;
20794;SDS011;28087;-33.874;151.240;2023-02-11T14:06:15;17.67;;;3.90;;
20794;SDS011;28087;-33.874;151.240;2023-02-11T14:09:08;18.10;;;3.97;;
20794;SDS011;28087;-33.874;151.240;2023-02-11T14:11:47;21.23;;;4.10;;
20794;SDS011;28087;-33.874;151.240;2023-02-11T14:14:27;19.27;;;4.43;;
20794;SDS011;28087;-33.874;151.240;2023-02-11T14:19:55;22.70;;;4.30;;
20794;SDS011;28087;-33.874;151.240;2023-02-11T14:22:39;23.00;;;4.05;;
20794;SDS011;28087;-33.874;151.240;2023-02-11T14:25:18;20.73;;;4.38;;
20794;SDS011;28087;-33.874;151.240;2023-02-11T14:27:54;19.55;;;4.30;;
20794;SDS011;28087;-33.874;151.240;2023-02-11T14:30:50;23.15;;;4.07;;
20794;SDS011;28087;-33.874;151.240;2023-02-11T14:33:41;19.00;;;4.28;;
20794;SDS011;28087;-33.874;151.240;2023-02-11T14:36:36;20.15;;;3.80;;
20794;SDS011;28087;-33.874;151.240;2023-02-11T14:39:16;20.20;;;4.50;;
20794;SDS011;28087;-33.874;151.240;2023-02-11T14:41:53;18.55;;;3.92;;
20794;SDS011;28087;-33.874;151.240;2023-02-11T14:44:28;24.00;;;4.47;;
20794;SDS011;28087;-33.874;151.240;2023-02-11T14:47:06;22.40;;;4.22;;
20794;SDS011;28087;-33.874;151.240;2023-02-11T14:49:50;19.98;;;4.22;;
20794;SDS011;28087;-33.874;151.240;2023-02-11T14:52:26;19.13;;;4.00;;
20794;SDS011;28087;-33.874;151.240;2023-02-11T14:55:05;23.20;;;4.63;;
20794;SDS011;28087;-33.874;151.240;2023-02-11T14:57:46;22.65;;;4.32;;
20794;SDS011;28087;-33.874;151.240;2023-02-11T15:00:27;17.13;;;4.05;;
20794;SDS011;28087;-33.874;151.240;2023-02-11T15:03:04;18.08;;;3.90;;
20794;SDS011;28087;-33.874;151.240;2023-02-11T15:05:39;21.60;;;4.13;;
20794;SDS011;28087;-33.874;151.240;2023-02-11T15:08:14;22.00;;;4.40;;
20794;SDS011;28087;-33.874;151.240;2023-02-11T15:10:49;24.35;;;4.80;;
20794;SDS011;28087;-33.874;151.240;2023-02-11T15:13:24;23.98;;;4.50;;
20794;SDS011;28087;-33.874;151.240;2023-02-11T15:16:03;20.55;;;3.97;;
20794;SDS011;28087;-33.874;151.240;2023-02-11T15:18:41;19.67;;;3.90;;
20794;SDS011;28087;-33.874;151.240;2023-02-11T15:21:19;22.27;;;4.43;;
20794;SDS011;28087;-33.874;151.240;2023-02-11T15:23:55;18.17;;;4.13;;